createdAt,value
2018-05-10T00:00:54.434Z,15.20
2018-05-10T00:03:20.599Z,13.60
2018-05-10T00:05:46.735Z,13.47
2018-05-10T00:08:12.881Z,12.70
2018-05-10T00:10:39.755Z,13.00
2018-05-10T00:13:05.889Z,13.70
2018-05-10T00:15:32.025Z,13.23
2018-05-10T00:17:58.309Z,13.67
2018-05-10T00:20:25.229Z,13.80
2018-05-10T00:22:51.394Z,12.93
2018-05-10T00:25:18.266Z,13.77
2018-05-10T00:27:44.407Z,14.73
2018-05-10T00:30:10.558Z,13.30
2018-05-10T00:32:36.726Z,14.40
2018-05-10T00:35:02.853Z,13.73
2018-05-10T00:37:29.098Z,13.53
2018-05-10T00:39:55.314Z,14.70
2018-05-10T00:42:21.430Z,14.97
2018-05-10T00:44:48.300Z,14.20
2018-05-10T00:47:14.530Z,14.43
2018-05-10T00:49:40.778Z,14.63
2018-05-10T00:52:06.926Z,14.97
2018-05-10T00:54:45.670Z,15.07
2018-05-10T00:57:12.534Z,13.90
2018-05-10T00:59:39.098Z,15.03
2018-05-10T01:02:05.271Z,14.97
2018-05-10T01:04:31.410Z,15.60
2018-05-10T01:06:58.282Z,15.60
2018-05-10T01:09:24.419Z,14.60
2018-05-10T01:11:50.551Z,15.77
2018-05-10T01:14:16.681Z,15.00
2018-05-10T01:16:42.853Z,15.10
2018-05-10T01:19:09.720Z,15.20
2018-05-10T01:21:36.271Z,16.10
2018-05-10T01:24:02.426Z,15.90
2018-05-10T01:26:28.561Z,16.10
2018-05-10T01:28:54.726Z,14.60
2018-05-10T01:31:21.597Z,16.43
2018-05-10T01:33:47.725Z,16.23
2018-05-10T01:36:16.794Z,15.33
2018-05-10T01:38:43.677Z,16.83
2018-05-10T01:41:09.814Z,16.63
2018-05-10T01:43:35.987Z,16.10
2018-05-10T01:46:02.906Z,15.10
2018-05-10T01:48:29.031Z,16.17
2018-05-10T01:50:55.323Z,17.27
2018-05-10T01:53:21.456Z,16.67
2018-05-10T01:55:47.578Z,15.10
2018-05-10T01:58:13.778Z,17.27
2018-05-10T02:00:40.645Z,17.53
2018-05-10T02:03:06.918Z,16.83
2018-05-10T02:05:33.066Z,18.13
2018-05-10T02:08:00.010Z,17.13
2018-05-10T02:10:26.889Z,16.80
2018-05-10T02:12:53.138Z,17.20
2018-05-10T02:15:19.375Z,17.60
2018-05-10T02:17:45.490Z,19.33
2018-05-10T02:20:11.638Z,17.47
2018-05-10T02:22:37.769Z,17.90
2018-05-10T02:25:03.963Z,17.47
2018-05-10T02:27:30.558Z,17.53
2018-05-10T02:29:57.422Z,18.83
2018-05-10T02:32:23.546Z,16.53
2018-05-10T02:34:49.846Z,17.30
2018-05-10T02:37:15.966Z,16.90
2018-05-10T02:39:42.105Z,18.33
2018-05-10T02:42:08.970Z,17.73
2018-05-10T02:44:35.962Z,18.47
2018-05-10T02:47:02.106Z,18.93
2018-05-10T02:49:28.231Z,18.33
2018-05-10T02:51:54.366Z,19.37
2018-05-10T02:54:20.502Z,17.80
2018-05-10T02:56:47.430Z,18.33
2018-05-10T02:59:13.530Z,17.37
2018-05-10T03:01:39.713Z,15.67
2018-05-10T03:04:06.574Z,16.80
2018-05-10T03:06:32.855Z,18.67
2018-05-10T03:08:58.979Z,17.17
2018-05-10T03:11:25.227Z,17.63
2018-05-10T03:13:51.365Z,17.70
2018-05-10T03:16:18.402Z,16.73
2018-05-10T03:18:44.542Z,17.57
2018-05-10T03:21:11.478Z,16.60
2018-05-10T03:23:38.766Z,19.10
2018-05-10T03:26:04.913Z,17.23
2018-05-10T03:28:31.026Z,18.33
2018-05-10T03:30:57.556Z,18.40
2018-05-10T03:33:23.731Z,17.60
2018-05-10T03:35:49.878Z,18.23
2018-05-10T03:38:16.819Z,17.97
2018-05-10T03:40:43.713Z,18.13
2018-05-10T03:43:09.837Z,18.47
2018-05-10T03:45:36.046Z,19.23
2018-05-10T03:48:02.297Z,18.70
2018-05-10T03:50:28.411Z,18.70
2018-05-10T03:52:54.541Z,17.63
2018-05-10T03:55:20.666Z,17.60
2018-05-10T03:57:46.814Z,17.60
2018-05-10T04:00:13.175Z,19.53
2018-05-10T04:05:58.172Z,19.53
2018-05-10T04:08:36.569Z,16.83
2018-05-10T04:11:13.617Z,17.90
2018-05-10T04:13:39.812Z,18.80
2018-05-10T04:16:06.123Z,19.07
2018-05-10T04:18:33.105Z,18.13
2018-05-10T04:20:59.370Z,17.60
2018-05-10T04:23:25.573Z,18.90
2018-05-10T04:25:51.797Z,17.80
2018-05-10T04:28:18.017Z,18.30
2018-05-10T04:30:44.274Z,18.23
2018-05-10T04:33:10.485Z,18.63
2018-05-10T04:35:36.701Z,18.10
2018-05-10T04:38:02.916Z,19.43
2018-05-10T04:40:29.128Z,18.80
2018-05-10T04:42:56.111Z,19.23
2018-05-10T04:45:22.332Z,18.00
2018-05-10T04:47:48.574Z,17.37
2018-05-10T04:50:14.888Z,19.40
2018-05-10T04:52:41.177Z,19.23
2018-05-10T04:55:08.281Z,19.67
2018-05-10T04:57:34.585Z,19.33
2018-05-10T05:00:01.549Z,19.27
2018-05-10T05:02:27.740Z,19.40
2018-05-10T05:04:54.671Z,18.17
2018-05-10T05:07:20.865Z,18.90
2018-05-10T05:09:47.048Z,20.57
2018-05-10T05:12:14.158Z,19.47
2018-05-10T05:14:41.131Z,20.30
2018-05-10T05:17:07.321Z,21.47
2018-05-10T05:19:33.561Z,19.77
2018-05-10T05:21:59.776Z,19.27
2018-05-10T05:24:25.976Z,20.07
2018-05-10T05:26:52.260Z,20.00
2018-05-10T05:29:18.428Z,17.87
2018-05-10T05:31:44.604Z,20.07
2018-05-10T05:34:10.820Z,18.70
2018-05-10T05:36:37.028Z,20.23
2018-05-10T05:39:03.288Z,19.87
2018-05-10T05:41:29.692Z,18.63
2018-05-10T05:43:55.833Z,18.30
2018-05-10T05:46:22.036Z,20.47
2018-05-10T05:48:48.261Z,20.93
2018-05-10T05:51:14.503Z,19.60
2018-05-10T05:53:41.702Z,20.60
2018-05-10T05:56:07.965Z,19.20
2018-05-10T05:58:35.030Z,18.20
2018-05-10T06:01:01.265Z,16.77
2018-05-10T06:03:27.446Z,18.63
2018-05-10T06:05:53.639Z,17.03
2018-05-10T06:08:19.824Z,18.80
2018-05-10T06:10:46.800Z,17.83
2018-05-10T06:13:13.133Z,16.43
2018-05-10T06:15:39.355Z,16.17
2018-05-10T06:18:05.610Z,17.50
2018-05-10T06:20:31.822Z,16.30
2018-05-10T06:22:58.059Z,20.07
2018-05-10T06:25:24.304Z,17.17
2018-05-10T06:27:50.607Z,16.20
2018-05-10T06:30:16.814Z,16.73
2018-05-10T06:32:44.011Z,16.10
2018-05-10T06:35:10.205Z,16.10
2018-05-10T06:37:36.460Z,18.30
2018-05-10T06:40:02.799Z,17.17
2018-05-10T06:42:29.019Z,17.33
2018-05-10T06:44:55.252Z,17.03
2018-05-10T06:47:21.605Z,17.30
2018-05-10T06:49:47.918Z,19.17
2018-05-10T06:52:14.200Z,16.43
2018-05-10T06:54:41.269Z,17.27
2018-05-10T06:57:07.428Z,19.00
2018-05-10T06:59:33.638Z,16.80
2018-05-10T07:01:59.836Z,19.17
2018-05-10T07:04:26.888Z,18.17
2018-05-10T07:06:53.825Z,17.70
2018-05-10T07:09:20.975Z,18.17
2018-05-10T07:11:47.837Z,18.00
2018-05-10T07:14:14.038Z,19.60
2018-05-10T07:16:40.244Z,19.00
2018-05-10T07:19:06.453Z,19.37
2018-05-10T07:21:32.981Z,17.30
2018-05-10T07:23:59.216Z,17.17
2018-05-10T07:26:25.428Z,19.00
2018-05-10T07:28:51.621Z,18.30
2018-05-10T07:31:18.579Z,16.90
2018-05-10T07:33:44.812Z,18.43
2018-05-10T07:36:11.792Z,18.27
2018-05-10T07:38:38.012Z,17.10
2018-05-10T07:41:04.221Z,17.83
2018-05-10T07:43:31.328Z,16.63
2018-05-10T07:45:57.568Z,22.03
2018-05-10T07:48:23.794Z,19.97
2018-05-10T07:50:50.220Z,19.13
2018-05-10T07:53:16.532Z,19.77
2018-05-10T07:55:42.694Z,19.67
2018-05-10T07:58:08.908Z,19.20
2018-05-10T08:00:35.125Z,23.27
2018-05-10T08:03:01.384Z,23.70
2018-05-10T08:05:27.611Z,24.00
2018-05-10T08:07:53.804Z,23.40
2018-05-10T08:10:20.005Z,25.80
2018-05-10T08:12:46.212Z,26.53
2018-05-10T08:15:13.183Z,27.10
2018-05-10T08:17:39.413Z,28.33
2018-05-10T08:20:05.646Z,34.70
2018-05-10T08:22:31.854Z,32.83
2018-05-10T08:24:58.884Z,35.93
2018-05-10T08:27:45.053Z,36.67
2018-05-10T08:30:11.347Z,39.23
2018-05-10T08:32:37.596Z,41.87
2018-05-10T08:35:03.801Z,43.10
2018-05-10T08:37:30.024Z,44.40
2018-05-10T08:39:56.245Z,53.97
2018-05-10T08:42:23.339Z,57.07
2018-05-10T08:44:49.570Z,59.97
2018-05-10T08:47:15.936Z,66.17
2018-05-10T08:49:43.072Z,62.87
2018-05-10T08:52:09.385Z,63.50
2018-05-10T08:54:35.564Z,70.53
2018-05-10T08:57:02.709Z,71.43
2018-05-10T08:59:30.057Z,70.27
2018-05-10T09:01:57.168Z,72.37
2018-05-10T09:04:23.405Z,76.07
2018-05-10T09:06:49.695Z,68.97
2018-05-10T09:09:15.964Z,72.90
2018-05-10T09:11:42.167Z,67.53
2018-05-10T09:14:08.347Z,79.77
2018-05-10T09:16:35.291Z,80.00
2018-05-10T09:19:02.704Z,82.47
2018-05-10T09:21:32.628Z,83.57
2018-05-10T09:23:58.864Z,84.07
2018-05-10T09:26:25.072Z,81.17
2018-05-10T09:28:51.545Z,76.33
2018-05-10T09:31:17.740Z,77.07
2018-05-10T09:33:44.378Z,81.40
2018-05-10T09:36:10.562Z,76.30
2018-05-10T09:38:36.759Z,70.03
2018-05-10T09:41:03.373Z,70.77
2018-05-10T09:43:29.550Z,67.00
2018-05-10T09:45:56.496Z,68.60
2018-05-10T09:48:23.498Z,74.50
2018-05-10T09:50:49.772Z,414.43
2018-05-10T09:53:16.725Z,70.70
2018-05-10T09:55:43.816Z,74.17
2018-05-10T09:58:10.032Z,132.50
2018-05-10T10:00:36.264Z,67.50
2018-05-10T10:03:02.469Z,65.53
2018-05-10T10:05:28.665Z,262.43
2018-05-10T10:07:54.952Z,98.60
2018-05-10T10:10:21.176Z,70.53
2018-05-10T10:12:47.394Z,55.00
2018-05-10T10:15:13.560Z,53.50
2018-05-10T10:17:40.506Z,54.27
2018-05-10T10:20:06.723Z,106.33
2018-05-10T10:22:32.945Z,52.83
2018-05-10T10:24:59.141Z,57.60
2018-05-10T10:27:26.105Z,51.60
2018-05-10T10:32:47.205Z,52.30
2018-05-10T10:35:14.243Z,46.90
2018-05-10T10:37:40.720Z,48.37
2018-05-10T10:40:07.074Z,43.00
2018-05-10T10:42:34.012Z,40.80
2018-05-10T10:45:00.873Z,40.73
2018-05-10T10:47:27.203Z,40.47
2018-05-10T10:49:53.430Z,40.40
2018-05-10T10:52:19.795Z,43.13
2018-05-10T10:54:46.871Z,40.10
2018-05-10T10:57:13.074Z,42.33
2018-05-10T10:59:40.117Z,44.30
2018-05-10T11:02:06.360Z,43.83
2018-05-10T11:04:33.317Z,45.50
2018-05-10T11:06:59.809Z,42.50
2018-05-10T11:09:26.066Z,42.83
2018-05-10T11:11:53.034Z,38.40
2018-05-10T11:14:19.568Z,35.80
2018-05-10T11:16:45.748Z,38.37
2018-05-10T11:19:11.938Z,34.60
2018-05-10T11:21:38.157Z,33.37
2018-05-10T11:24:04.408Z,32.20
2018-05-10T11:26:30.633Z,29.00
2018-05-10T11:28:56.883Z,29.77
2018-05-10T11:31:23.076Z,26.97
2018-05-10T11:33:49.280Z,27.10
2018-05-10T11:36:15.525Z,27.90
2018-05-10T11:38:41.773Z,25.87
2018-05-10T11:41:07.980Z,26.00
2018-05-10T11:43:34.197Z,26.20
2018-05-10T11:46:01.180Z,26.40
2018-05-10T11:48:27.376Z,26.17
2018-05-10T11:50:54.324Z,24.37
2018-05-10T11:53:20.520Z,25.03
2018-05-10T11:55:46.765Z,23.50
2018-05-10T11:58:12.965Z,22.60
2018-05-10T12:00:39.309Z,20.80
2018-05-10T12:03:05.502Z,19.53
2018-05-10T12:05:31.715Z,16.80
2018-05-10T12:07:57.916Z,16.53
2018-05-10T12:10:24.867Z,14.20
2018-05-10T12:12:51.810Z,15.00
2018-05-10T12:15:18.748Z,14.30
2018-05-10T12:17:45.745Z,13.23
2018-05-10T12:20:11.966Z,13.23
2018-05-10T12:22:38.176Z,14.30
2018-05-10T12:25:04.364Z,12.70
2018-05-10T12:27:31.272Z,13.77
2018-05-10T12:29:57.472Z,12.60
2018-05-10T12:32:24.412Z,15.33
2018-05-10T12:34:51.377Z,15.30
2018-05-10T12:37:17.595Z,13.60
2018-05-10T12:39:43.964Z,15.37
2018-05-10T12:42:10.212Z,14.63
2018-05-10T12:44:36.420Z,15.40
2018-05-10T12:47:02.648Z,14.23
2018-05-10T12:49:28.938Z,11.37
2018-05-10T12:51:55.876Z,9.30
2018-05-10T12:54:22.953Z,8.17
2018-05-10T12:56:49.185Z,6.70
2018-05-10T12:59:15.400Z,6.90
2018-05-10T13:01:41.624Z,7.17
2018-05-10T13:04:08.572Z,6.47
2018-05-10T13:06:34.798Z,5.43
2018-05-10T13:09:01.787Z,6.00
2018-05-10T13:11:28.033Z,6.27
2018-05-10T13:13:54.388Z,7.83
2018-05-10T13:16:21.345Z,8.70
2018-05-10T13:18:47.545Z,9.60
2018-05-10T13:21:13.736Z,7.73
2018-05-10T13:23:40.021Z,6.90
2018-05-10T13:26:06.969Z,7.40
2018-05-10T13:28:33.943Z,7.07
2018-05-10T13:31:00.291Z,6.00
2018-05-10T13:33:26.496Z,6.70
2018-05-10T13:35:52.777Z,6.80
2018-05-10T13:38:19.088Z,6.20
2018-05-10T13:40:45.405Z,7.10
2018-05-10T13:43:11.609Z,6.30
2018-05-10T13:45:38.532Z,5.67
2018-05-10T13:48:04.786Z,6.20
2018-05-10T13:50:31.730Z,6.20
2018-05-10T13:52:58.758Z,6.77
2018-05-10T13:55:24.929Z,7.03
2018-05-10T13:57:51.125Z,6.20
2018-05-10T14:00:18.060Z,6.30
2018-05-10T14:02:44.260Z,5.87
2018-05-10T14:05:10.488Z,5.80
2018-05-10T14:07:36.674Z,5.97
2018-05-10T14:10:02.921Z,4.80
2018-05-10T14:12:29.573Z,5.00
2018-05-10T14:14:55.851Z,5.20
2018-05-10T14:17:22.040Z,5.37
2018-05-10T14:19:49.001Z,5.53
2018-05-10T14:22:15.209Z,5.90
2018-05-10T14:24:41.410Z,5.30
2018-05-10T14:27:07.637Z,4.40
2018-05-10T14:29:33.871Z,4.20
2018-05-10T14:32:00.227Z,4.90
2018-05-10T14:34:26.427Z,4.70
2018-05-10T14:36:52.770Z,4.13
2018-05-10T14:39:18.989Z,4.20
2018-05-10T14:41:45.230Z,3.90
2018-05-10T14:44:11.446Z,3.83
2018-05-10T14:46:37.928Z,4.03
2018-05-10T14:49:04.135Z,4.33
2018-05-10T14:51:30.352Z,3.90
2018-05-10T14:53:57.015Z,3.63
2018-05-10T14:56:23.229Z,4.57
2018-05-10T14:58:49.484Z,5.57
2018-05-10T15:01:15.702Z,3.73
2018-05-10T15:03:41.916Z,4.07
2018-05-10T15:06:08.200Z,4.37
2018-05-10T15:08:35.157Z,4.10
2018-05-10T15:11:01.397Z,4.43
2018-05-10T15:13:27.597Z,4.30
2018-05-10T15:15:54.540Z,3.57
2018-05-10T15:18:21.510Z,3.83
2018-05-10T15:20:47.730Z,3.70
2018-05-10T15:23:13.933Z,3.80
2018-05-10T15:25:40.128Z,3.47
2018-05-10T15:28:06.324Z,3.53
2018-05-10T15:30:32.549Z,3.53
2018-05-10T15:32:58.748Z,3.10
2018-05-10T15:35:25.849Z,3.83
2018-05-10T15:37:52.052Z,10.50
2018-05-10T15:40:18.257Z,3.30
2018-05-10T15:42:44.465Z,3.23
2018-05-10T15:45:10.723Z,3.40
2018-05-10T15:47:37.900Z,3.57
2018-05-10T15:50:04.121Z,3.60
2018-05-10T15:52:30.576Z,3.37
2018-05-10T15:54:56.788Z,3.80
2018-05-10T15:57:22.987Z,3.40
2018-05-10T15:59:49.179Z,3.30
2018-05-10T16:02:15.486Z,2.83
2018-05-10T16:04:41.740Z,2.80
2018-05-10T16:07:07.994Z,2.97
2018-05-10T16:09:34.197Z,2.50
2018-05-10T16:12:00.444Z,2.90
2018-05-10T16:14:26.652Z,2.77
2018-05-10T16:16:53.040Z,3.07
2018-05-10T16:19:20.045Z,3.17
2018-05-10T16:21:46.281Z,2.87
2018-05-10T16:24:12.481Z,3.13
2018-05-10T16:26:38.694Z,3.00
2018-05-10T16:29:05.009Z,3.50
2018-05-10T16:31:31.969Z,2.93
2018-05-10T16:33:58.180Z,3.10
2018-05-10T16:36:25.116Z,2.87
2018-05-10T16:38:52.062Z,3.10
2018-05-10T16:41:19.012Z,2.73
2018-05-10T16:43:45.949Z,2.97
2018-05-10T16:46:12.180Z,2.50
2018-05-10T16:48:39.246Z,2.97
2018-05-10T16:51:06.201Z,3.20
2018-05-10T16:53:32.435Z,3.50
2018-05-10T16:55:58.640Z,3.30
2018-05-10T16:58:25.595Z,3.30
2018-05-10T17:00:51.902Z,2.90
2018-05-10T17:03:18.103Z,3.10
2018-05-10T17:05:44.349Z,3.60
2018-05-10T17:08:10.548Z,3.50
2018-05-10T17:10:36.797Z,3.20
2018-05-10T17:13:03.035Z,3.17
2018-05-10T17:15:29.258Z,3.53
2018-05-10T17:17:55.646Z,3.03
2018-05-10T17:20:21.868Z,3.70
2018-05-10T17:22:48.073Z,3.17
2018-05-10T17:25:15.144Z,3.37
2018-05-10T17:27:41.388Z,3.97
2018-05-10T17:30:07.580Z,4.40
2018-05-10T17:32:34.655Z,4.47
2018-05-10T17:35:01.000Z,3.60
2018-05-10T17:37:27.222Z,4.10
2018-05-10T17:39:53.495Z,4.30
2018-05-10T17:42:19.730Z,3.67
2018-05-10T17:44:45.951Z,4.47
2018-05-10T17:47:12.396Z,4.87
2018-05-10T17:49:38.605Z,4.20
2018-05-10T17:52:04.841Z,5.03
2018-05-10T17:54:31.185Z,4.50
2018-05-10T17:56:57.421Z,4.37
2018-05-10T17:59:23.675Z,4.50
2018-05-10T18:01:50.637Z,4.17
2018-05-10T18:04:16.900Z,5.47
2018-05-10T18:06:43.128Z,3.57
2018-05-10T18:09:09.404Z,3.73
2018-05-10T18:11:35.609Z,4.50
2018-05-10T18:14:01.867Z,4.30
2018-05-10T18:16:28.100Z,3.40
2018-05-10T18:18:55.105Z,4.50
2018-05-10T18:21:21.330Z,3.63
2018-05-10T18:23:47.616Z,3.43
2018-05-10T18:26:13.838Z,3.50
2018-05-10T18:28:40.155Z,5.73
2018-05-10T18:31:07.126Z,3.90
2018-05-10T18:33:33.380Z,4.20
2018-05-10T18:35:59.725Z,3.47
2018-05-10T18:38:26.036Z,3.83
2018-05-10T18:40:52.386Z,3.60
2018-05-10T18:43:18.673Z,3.83
2018-05-10T18:45:44.904Z,5.40
2018-05-10T18:48:11.197Z,3.60
2018-05-10T18:50:37.441Z,3.77
2018-05-10T18:53:04.417Z,4.50
2018-05-10T18:55:30.644Z,4.70
2018-05-10T18:57:56.877Z,4.20
2018-05-10T19:00:23.540Z,4.37
2018-05-10T19:02:49.860Z,4.33
2018-05-10T19:05:16.101Z,4.10
2018-05-10T19:07:42.317Z,3.90
2018-05-10T19:10:08.528Z,4.37
2018-05-10T19:12:34.849Z,4.20
2018-05-10T19:15:01.788Z,4.20
2018-05-10T19:17:28.751Z,3.70
2018-05-10T19:19:55.011Z,4.20
2018-05-10T19:22:21.258Z,3.90
2018-05-10T19:24:47.466Z,4.07
2018-05-10T19:27:13.865Z,4.30
2018-05-10T19:29:40.159Z,4.40
2018-05-10T19:32:06.532Z,4.33
2018-05-10T19:34:33.012Z,4.20
2018-05-10T19:36:59.404Z,5.00
2018-05-10T19:39:25.705Z,4.50
2018-05-10T19:41:52.696Z,4.80
2018-05-10T19:44:18.968Z,5.30
2018-05-10T19:46:45.205Z,4.67
2018-05-10T19:49:12.185Z,4.30
2018-05-10T19:51:38.414Z,4.13
2018-05-10T19:54:04.628Z,4.20
2018-05-10T19:56:30.860Z,3.87
2018-05-10T19:58:57.922Z,4.87
2018-05-10T20:01:24.112Z,3.97
2018-05-10T20:03:50.318Z,3.90
2018-05-10T20:06:17.399Z,4.30
2018-05-10T20:08:44.359Z,4.90
2018-05-10T20:11:11.308Z,4.23
2018-05-10T20:13:37.585Z,4.43
2018-05-10T20:16:04.521Z,4.23
2018-05-10T20:18:30.737Z,4.13
2018-05-10T20:20:56.949Z,3.90
2018-05-10T20:23:23.177Z,4.17
2018-05-10T20:25:49.401Z,3.73
2018-05-10T20:28:15.640Z,3.67
2018-05-10T20:30:41.927Z,4.10
2018-05-10T20:33:08.137Z,4.10
2018-05-10T20:35:34.356Z,3.93
2018-05-10T20:38:00.757Z,5.00
2018-05-10T20:40:27.425Z,5.00
2018-05-10T20:42:53.646Z,3.90
2018-05-10T20:45:19.854Z,4.60
2018-05-10T20:47:46.081Z,5.77
2018-05-10T20:50:12.288Z,4.83
2018-05-10T20:52:39.245Z,4.30
2018-05-10T20:55:06.584Z,4.97
2018-05-10T20:57:32.743Z,4.47
2018-05-10T20:59:58.940Z,5.03
2018-05-10T21:02:25.908Z,4.53
2018-05-10T21:04:52.182Z,4.77
2018-05-10T21:07:18.383Z,4.87
2018-05-10T21:09:44.673Z,5.10
2018-05-10T21:12:23.917Z,4.47
2018-05-10T21:14:50.910Z,5.03
2018-05-10T21:17:17.132Z,4.73
2018-05-10T21:19:43.358Z,5.03
2018-05-10T21:22:09.580Z,4.87
2018-05-10T21:24:35.784Z,4.83
2018-05-10T21:27:02.733Z,5.27
2018-05-10T21:29:29.705Z,5.10
2018-05-10T21:31:55.928Z,5.47
2018-05-10T21:34:22.137Z,5.00
2018-05-10T21:36:48.342Z,4.63
2018-05-10T21:39:14.883Z,5.00
2018-05-10T21:41:41.831Z,5.50
2018-05-10T21:44:08.815Z,5.70
2018-05-10T21:46:35.033Z,5.13
2018-05-10T21:49:01.316Z,4.80
2018-05-10T21:51:27.565Z,4.40
2018-05-10T21:53:54.525Z,5.70
2018-05-10T21:56:21.481Z,6.80
2018-05-10T21:58:47.696Z,5.43
2018-05-10T22:01:14.629Z,5.40
2018-05-10T22:03:41.600Z,5.53
2018-05-10T22:06:07.795Z,5.73
2018-05-10T22:08:34.033Z,5.43
2018-05-10T22:11:00.971Z,6.23
2018-05-10T22:13:27.160Z,6.20
2018-05-10T22:15:53.408Z,7.33
2018-05-10T22:18:19.608Z,6.80
2018-05-10T22:20:45.847Z,6.97
2018-05-10T22:23:12.052Z,5.97
2018-05-10T22:25:38.245Z,7.13
2018-05-10T22:28:04.443Z,6.60
2018-05-10T22:30:30.649Z,7.23
2018-05-10T22:32:56.852Z,7.70
2018-05-10T22:35:23.875Z,7.60
2018-05-10T22:37:50.156Z,7.40
2018-05-10T22:40:16.349Z,7.57
2018-05-10T22:42:43.291Z,8.37
2018-05-10T22:45:10.344Z,7.77
2018-05-10T22:47:37.285Z,8.97
2018-05-10T22:50:04.219Z,8.60
2018-05-10T22:52:30.423Z,8.07
2018-05-10T22:54:56.777Z,7.47
2018-05-10T22:57:23.005Z,8.63
2018-05-10T22:59:49.228Z,8.80
2018-05-10T23:02:15.449Z,8.73
2018-05-10T23:04:41.691Z,9.10
2018-05-10T23:07:07.884Z,11.13
2018-05-10T23:09:34.108Z,11.53
2018-05-10T23:12:00.335Z,8.63
2018-05-10T23:14:26.522Z,9.13
2018-05-10T23:16:53.452Z,9.30
2018-05-10T23:19:19.645Z,8.90
2018-05-10T23:21:45.844Z,10.40
2018-05-10T23:24:12.100Z,9.33
2018-05-10T23:26:38.265Z,9.07
2018-05-10T23:29:04.488Z,9.50
2018-05-10T23:31:30.876Z,9.97
2018-05-10T23:33:57.081Z,9.77
2018-05-10T23:36:24.018Z,10.80
2018-05-10T23:38:50.955Z,10.73
2018-05-10T23:41:18.273Z,11.00
2018-05-10T23:43:44.467Z,9.03
2018-05-10T23:46:10.674Z,10.93
2018-05-10T23:48:37.971Z,11.33
2018-05-10T23:51:04.181Z,11.10
2018-05-10T23:53:30.380Z,10.63
2018-05-10T23:55:57.318Z,11.00
2018-05-10T23:58:23.513Z,10.10
